sensor_id;sensor_type;location;lat;lon;timestamp;temperature;humidity
49777;DHT22;35673;51.482;7.436;2022-08-19T00:02:02;20.00;99.90
49777;DHT22;35673;51.482;7.436;2022-08-19T00:04:32;20.10;99.90
49777;DHT22;35673;51.482;7.436;2022-08-19T00:07:00;20.10;99.90
49777;DHT22;35673;51.482;7.436;2022-08-19T00:09:26;20.10;99.90
49777;DHT22;35673;51.482;7.436;2022-08-19T00:11:52;20.10;99.90
49777;DHT22;35673;51.482;7.436;2022-08-19T00:14:21;20.10;99.90
49777;DHT22;35673;51.482;7.436;2022-08-19T00:16:48;20.10;99.90
49777;DHT22;35673;51.482;7.436;2022-08-19T00:19:15;20.10;99.90
49777;DHT22;35673;51.482;7.436;2022-08-19T00:21:41;20.10;99.90
49777;DHT22;35673;51.482;7.436;2022-08-19T00:24:08;20.10;99.90
49777;DHT22;35673;51.482;7.436;2022-08-19T00:26:36;20.10;99.90
49777;DHT22;35673;51.482;7.436;2022-08-19T00:29:03;20.00;99.90
49777;DHT22;35673;51.482;7.436;2022-08-19T00:31:29;20.00;99.90
49777;DHT22;35673;51.482;7.436;2022-08-19T00:33:56;20.00;99.90
49777;DHT22;35673;51.482;7.436;2022-08-19T00:36:22;20.00;99.90
49777;DHT22;35673;51.482;7.436;2022-08-19T00:38:48;20.00;99.90
49777;DHT22;35673;51.482;7.436;2022-08-19T00:41:16;20.00;99.90
49777;DHT22;35673;51.482;7.436;2022-08-19T00:44:00;20.00;99.90
49777;DHT22;35673;51.482;7.436;2022-08-19T00:46:27;20.00;99.70
49777;DHT22;35673;51.482;7.436;2022-08-19T00:48:53;19.90;99.90
49777;DHT22;35673;51.482;7.436;2022-08-19T00:51:19;19.90;99.90
49777;DHT22;35673;51.482;7.436;2022-08-19T00:53:45;19.90;99.90
49777;DHT22;35673;51.482;7.436;2022-08-19T00:56:11;19.90;99.80
49777;DHT22;35673;51.482;7.436;2022-08-19T00:58:36;19.80;99.80
49777;DHT22;35673;51.482;7.436;2022-08-19T01:01:04;19.80;99.90
49777;DHT22;35673;51.482;7.436;2022-08-19T01:03:29;19.80;99.90
49777;DHT22;35673;51.482;7.436;2022-08-19T01:05:55;19.70;99.90
49777;DHT22;35673;51.482;7.436;2022-08-19T01:08:21;19.70;99.90
49777;DHT22;35673;51.482;7.436;2022-08-19T01:10:53;19.70;99.90
49777;DHT22;35673;51.482;7.436;2022-08-19T01:13:22;19.70;99.90
49777;DHT22;35673;51.482;7.436;2022-08-19T01:15:53;19.70;99.90
49777;DHT22;35673;51.482;7.436;2022-08-19T01:18:20;19.70;99.90
49777;DHT22;35673;51.482;7.436;2022-08-19T01:20:47;19.60;99.90
49777;DHT22;35673;51.482;7.436;2022-08-19T01:23:14;19.60;99.90
49777;DHT22;35673;51.482;7.436;2022-08-19T01:25:48;19.60;99.90
49777;DHT22;35673;51.482;7.436;2022-08-19T01:28:23;19.50;99.90
49777;DHT22;35673;51.482;7.436;2022-08-19T01:30:51;19.50;99.90
49777;DHT22;35673;51.482;7.436;2022-08-19T01:33:16;19.50;99.90
49777;DHT22;35673;51.482;7.436;2022-08-19T01:35:43;19.40;99.90
49777;DHT22;35673;51.482;7.436;2022-08-19T01:38:19;19.30;99.90
49777;DHT22;35673;51.482;7.436;2022-08-19T01:40:45;19.30;99.90
49777;DHT22;35673;51.482;7.436;2022-08-19T01:43:10;19.40;99.90
49777;DHT22;35673;51.482;7.436;2022-08-19T01:45:36;19.40;99.90
49777;DHT22;35673;51.482;7.436;2022-08-19T01:48:03;19.40;99.90
49777;DHT22;35673;51.482;7.436;2022-08-19T01:50:30;19.40;99.90
49777;DHT22;35673;51.482;7.436;2022-08-19T01:52:56;19.30;99.90
49777;DHT22;35673;51.482;7.436;2022-08-19T01:55:22;19.40;99.90
49777;DHT22;35673;51.482;7.436;2022-08-19T01:57:52;19.40;99.90
49777;DHT22;35673;51.482;7.436;2022-08-19T02:00:21;19.40;99.90
49777;DHT22;35673;51.482;7.436;2022-08-19T02:02:48;19.40;99.90
49777;DHT22;35673;51.482;7.436;2022-08-19T02:05:13;19.40;99.90
49777;DHT22;35673;51.482;7.436;2022-08-19T02:07:40;19.40;99.90
49777;DHT22;35673;51.482;7.436;2022-08-19T02:10:10;19.30;99.90
49777;DHT22;35673;51.482;7.436;2022-08-19T02:12:35;19.30;99.90
49777;DHT22;35673;51.482;7.436;2022-08-19T02:15:01;19.30;99.90
49777;DHT22;35673;51.482;7.436;2022-08-19T02:17:28;19.30;99.90
49777;DHT22;35673;51.482;7.436;2022-08-19T02:19:54;19.20;99.90
49777;DHT22;35673;51.482;7.436;2022-08-19T02:22:21;19.30;99.90
49777;DHT22;35673;51.482;7.436;2022-08-19T02:24:46;19.20;99.90
49777;DHT22;35673;51.482;7.436;2022-08-19T02:27:13;19.20;99.90
49777;DHT22;35673;51.482;7.436;2022-08-19T02:29:39;19.20;99.90
49777;DHT22;35673;51.482;7.436;2022-08-19T02:32:05;19.20;99.90
49777;DHT22;35673;51.482;7.436;2022-08-19T02:34:30;19.20;99.90
49777;DHT22;35673;51.482;7.436;2022-08-19T02:36:56;19.20;99.90
49777;DHT22;35673;51.482;7.436;2022-08-19T02:39:22;19.20;99.90
49777;DHT22;35673;51.482;7.436;2022-08-19T02:41:47;19.20;99.90
49777;DHT22;35673;51.482;7.436;2022-08-19T02:44:14;19.20;99.90
49777;DHT22;35673;51.482;7.436;2022-08-19T02:46:40;19.20;99.90
49777;DHT22;35673;51.482;7.436;2022-08-19T02:49:07;19.20;99.90
49777;DHT22;35673;51.482;7.436;2022-08-19T02:51:38;19.20;99.90
49777;DHT22;35673;51.482;7.436;2022-08-19T02:54:05;19.20;99.90
49777;DHT22;35673;51.482;7.436;2022-08-19T02:56:36;19.10;99.90
49777;DHT22;35673;51.482;7.436;2022-08-19T02:59:03;19.10;99.90
49777;DHT22;35673;51.482;7.436;2022-08-19T03:01:34;19.00;99.90
49777;DHT22;35673;51.482;7.436;2022-08-19T03:04:03;19.00;99.90
49777;DHT22;35673;51.482;7.436;2022-08-19T03:06:29;18.90;99.90
49777;DHT22;35673;51.482;7.436;2022-08-19T03:08:55;18.90;99.90
49777;DHT22;35673;51.482;7.436;2022-08-19T03:11:23;18.90;99.90
49777;DHT22;35673;51.482;7.436;2022-08-19T03:13:50;18.80;99.90
49777;DHT22;35673;51.482;7.436;2022-08-19T03:16:17;18.80;99.90
49777;DHT22;35673;51.482;7.436;2022-08-19T03:18:43;18.80;99.90
49777;DHT22;35673;51.482;7.436;2022-08-19T03:21:09;18.80;99.90
49777;DHT22;35673;51.482;7.436;2022-08-19T03:23:35;18.80;99.90
49777;DHT22;35673;51.482;7.436;2022-08-19T03:26:05;18.80;99.90
49777;DHT22;35673;51.482;7.436;2022-08-19T03:28:31;18.90;99.90
49777;DHT22;35673;51.482;7.436;2022-08-19T03:31:02;18.90;99.90
49777;DHT22;35673;51.482;7.436;2022-08-19T03:33:30;18.80;99.90
49777;DHT22;35673;51.482;7.436;2022-08-19T03:38:35;18.90;99.90
49777;DHT22;35673;51.482;7.436;2022-08-19T03:41:11;18.90;99.90
49777;DHT22;35673;51.482;7.436;2022-08-19T03:43:39;18.90;99.90
49777;DHT22;35673;51.482;7.436;2022-08-19T03:46:10;18.80;99.90
49777;DHT22;35673;51.482;7.436;2022-08-19T03:48:37;18.80;99.90
49777;DHT22;35673;51.482;7.436;2022-08-19T03:51:04;18.80;99.90
49777;DHT22;35673;51.482;7.436;2022-08-19T03:53:30;18.80;99.90
49777;DHT22;35673;51.482;7.436;2022-08-19T03:55:57;18.80;99.90
49777;DHT22;35673;51.482;7.436;2022-08-19T03:58:26;18.80;99.90
49777;DHT22;35673;51.482;7.436;2022-08-19T04:00:55;18.80;99.90
49777;DHT22;35673;51.482;7.436;2022-08-19T04:03:22;18.80;99.90
49777;DHT22;35673;51.482;7.436;2022-08-19T04:05:48;18.70;99.90
49777;DHT22;35673;51.482;7.436;2022-08-19T04:08:14;18.70;99.90
49777;DHT22;35673;51.482;7.436;2022-08-19T04:10:48;18.70;99.90
49777;DHT22;35673;51.482;7.436;2022-08-19T04:13:16;18.70;99.90
49777;DHT22;35673;51.482;7.436;2022-08-19T04:15:43;18.70;99.90
49777;DHT22;35673;51.482;7.436;2022-08-19T04:18:09;18.70;99.90
49777;DHT22;35673;51.482;7.436;2022-08-19T04:20:46;18.70;99.90
49777;DHT22;35673;51.482;7.436;2022-08-19T04:23:13;18.70;99.90
49777;DHT22;35673;51.482;7.436;2022-08-19T04:25:43;18.80;99.90
49777;DHT22;35673;51.482;7.436;2022-08-19T04:28:11;18.80;99.90
49777;DHT22;35673;51.482;7.436;2022-08-19T04:30:41;18.80;99.90
49777;DHT22;35673;51.482;7.436;2022-08-19T04:33:08;18.80;99.90
49777;DHT22;35673;51.482;7.436;2022-08-19T04:35:39;18.80;99.90
49777;DHT22;35673;51.482;7.436;2022-08-19T04:38:05;18.80;99.90
49777;DHT22;35673;51.482;7.436;2022-08-19T04:40:31;18.80;99.90
49777;DHT22;35673;51.482;7.436;2022-08-19T04:43:15;18.80;99.90
49777;DHT22;35673;51.482;7.436;2022-08-19T04:45:45;18.70;99.90
49777;DHT22;35673;51.482;7.436;2022-08-19T04:48:12;18.60;99.90
49777;DHT22;35673;51.482;7.436;2022-08-19T04:50:42;18.60;99.90
49777;DHT22;35673;51.482;7.436;2022-08-19T04:53:09;18.60;99.90
49777;DHT22;35673;51.482;7.436;2022-08-19T04:55:38;18.60;99.90
49777;DHT22;35673;51.482;7.436;2022-08-19T04:58:04;18.60;99.90
49777;DHT22;35673;51.482;7.436;2022-08-19T05:00:30;18.60;99.90
49777;DHT22;35673;51.482;7.436;2022-08-19T05:02:55;18.60;99.90
49777;DHT22;35673;51.482;7.436;2022-08-19T05:05:21;18.60;99.90
49777;DHT22;35673;51.482;7.436;2022-08-19T05:07:46;18.40;99.90
49777;DHT22;35673;51.482;7.436;2022-08-19T05:10:12;18.50;99.90
49777;DHT22;35673;51.482;7.436;2022-08-19T05:12:38;18.50;99.90
49777;DHT22;35673;51.482;7.436;2022-08-19T05:15:05;18.40;99.90
49777;DHT22;35673;51.482;7.436;2022-08-19T05:17:33;18.40;99.90
49777;DHT22;35673;51.482;7.436;2022-08-19T05:19:59;18.40;99.90
49777;DHT22;35673;51.482;7.436;2022-08-19T05:22:45;18.40;99.90
49777;DHT22;35673;51.482;7.436;2022-08-19T05:25:17;18.60;99.90
49777;DHT22;35673;51.482;7.436;2022-08-19T05:27:44;18.70;99.90
49777;DHT22;35673;51.482;7.436;2022-08-19T05:30:10;18.80;99.90
49777;DHT22;35673;51.482;7.436;2022-08-19T05:32:37;18.90;99.90
49777;DHT22;35673;51.482;7.436;2022-08-19T05:35:03;18.90;99.90
49777;DHT22;35673;51.482;7.436;2022-08-19T05:37:29;18.90;99.90
49777;DHT22;35673;51.482;7.436;2022-08-19T05:39:55;19.00;99.90
49777;DHT22;35673;51.482;7.436;2022-08-19T05:42:21;19.10;99.90
49777;DHT22;35673;51.482;7.436;2022-08-19T05:44:48;19.10;99.90
49777;DHT22;35673;51.482;7.436;2022-08-19T05:47:15;19.20;99.90
49777;DHT22;35673;51.482;7.436;2022-08-19T05:49:41;19.20;99.90
49777;DHT22;35673;51.482;7.436;2022-08-19T05:52:10;19.30;99.90
49777;DHT22;35673;51.482;7.436;2022-08-19T05:54:37;19.30;99.90
49777;DHT22;35673;51.482;7.436;2022-08-19T05:57:05;19.30;99.90
49777;DHT22;35673;51.482;7.436;2022-08-19T05:59:31;19.40;99.90
49777;DHT22;35673;51.482;7.436;2022-08-19T06:01:56;19.40;99.90
49777;DHT22;35673;51.482;7.436;2022-08-19T06:04:23;19.50;99.90
49777;DHT22;35673;51.482;7.436;2022-08-19T06:06:50;19.50;99.90
49777;DHT22;35673;51.482;7.436;2022-08-19T06:09:17;19.50;99.90
49777;DHT22;35673;51.482;7.436;2022-08-19T06:11:47;19.50;99.90
49777;DHT22;35673;51.482;7.436;2022-08-19T06:14:18;19.50;99.90
49777;DHT22;35673;51.482;7.436;2022-08-19T06:16:46;19.60;99.90
49777;DHT22;35673;51.482;7.436;2022-08-19T06:19:14;19.70;99.90
49777;DHT22;35673;51.482;7.436;2022-08-19T06:21:42;19.80;99.90
49777;DHT22;35673;51.482;7.436;2022-08-19T06:24:11;19.70;99.90
49777;DHT22;35673;51.482;7.436;2022-08-19T06:26:40;19.80;99.90
49777;DHT22;35673;51.482;7.436;2022-08-19T06:29:08;20.00;99.90
49777;DHT22;35673;51.482;7.436;2022-08-19T06:31:35;20.10;99.90
49777;DHT22;35673;51.482;7.436;2022-08-19T06:34:03;20.20;99.90
49777;DHT22;35673;51.482;7.436;2022-08-19T06:36:33;20.20;99.90
49777;DHT22;35673;51.482;7.436;2022-08-19T06:39:08;20.20;99.90
49777;DHT22;35673;51.482;7.436;2022-08-19T06:41:37;20.30;99.90
49777;DHT22;35673;51.482;7.436;2022-08-19T06:44:03;20.30;99.90
49777;DHT22;35673;51.482;7.436;2022-08-19T06:46:29;20.40;99.90
49777;DHT22;35673;51.482;7.436;2022-08-19T06:48:56;20.40;99.90
49777;DHT22;35673;51.482;7.436;2022-08-19T06:51:22;20.40;99.90
49777;DHT22;35673;51.482;7.436;2022-08-19T06:53:50;20.50;99.90
49777;DHT22;35673;51.482;7.436;2022-08-19T06:56:19;20.60;99.90
49777;DHT22;35673;51.482;7.436;2022-08-19T06:58:45;20.70;99.90
49777;DHT22;35673;51.482;7.436;2022-08-19T07:01:12;20.80;99.90
49777;DHT22;35673;51.482;7.436;2022-08-19T07:03:38;20.70;99.90
49777;DHT22;35673;51.482;7.436;2022-08-19T07:06:09;20.60;99.90
49777;DHT22;35673;51.482;7.436;2022-08-19T07:08:36;20.60;99.90
49777;DHT22;35673;51.482;7.436;2022-08-19T07:11:09;20.60;99.90
49777;DHT22;35673;51.482;7.436;2022-08-19T07:13:36;20.60;99.90
49777;DHT22;35673;51.482;7.436;2022-08-19T07:16:07;20.70;99.90
49777;DHT22;35673;51.482;7.436;2022-08-19T07:18:34;20.80;99.90
49777;DHT22;35673;51.482;7.436;2022-08-19T07:21:08;20.80;99.90
49777;DHT22;35673;51.482;7.436;2022-08-19T07:23:34;20.90;99.90
49777;DHT22;35673;51.482;7.436;2022-08-19T07:26:17;21.00;99.90
49777;DHT22;35673;51.482;7.436;2022-08-19T07:28:45;21.10;99.90
49777;DHT22;35673;51.482;7.436;2022-08-19T07:31:12;21.10;99.90
49777;DHT22;35673;51.482;7.436;2022-08-19T07:33:39;21.10;99.90
49777;DHT22;35673;51.482;7.436;2022-08-19T07:36:07;21.10;99.90
49777;DHT22;35673;51.482;7.436;2022-08-19T07:38:35;21.20;99.90
49777;DHT22;35673;51.482;7.436;2022-08-19T07:41:01;21.30;99.90
49777;DHT22;35673;51.482;7.436;2022-08-19T07:43:27;21.30;99.90
49777;DHT22;35673;51.482;7.436;2022-08-19T07:45:54;21.40;99.90
49777;DHT22;35673;51.482;7.436;2022-08-19T07:48:26;21.40;99.90
49777;DHT22;35673;51.482;7.436;2022-08-19T07:50:53;21.50;99.90
49777;DHT22;35673;51.482;7.436;2022-08-19T07:53:23;21.60;99.90
49777;DHT22;35673;51.482;7.436;2022-08-19T07:55:50;21.60;99.90
49777;DHT22;35673;51.482;7.436;2022-08-19T07:58:19;21.50;99.90
49777;DHT22;35673;51.482;7.436;2022-08-19T08:00:47;21.60;99.90
49777;DHT22;35673;51.482;7.436;2022-08-19T08:03:15;21.70;99.90
49777;DHT22;35673;51.482;7.436;2022-08-19T08:05:42;21.70;99.90
49777;DHT22;35673;51.482;7.436;2022-08-19T08:08:27;21.70;99.90
49777;DHT22;35673;51.482;7.436;2022-08-19T08:11:12;21.60;99.90
49777;DHT22;35673;51.482;7.436;2022-08-19T08:13:38;21.70;99.90
49777;DHT22;35673;51.482;7.436;2022-08-19T08:16:03;21.80;99.90
49777;DHT22;35673;51.482;7.436;2022-08-19T08:18:29;21.90;99.90
49777;DHT22;35673;51.482;7.436;2022-08-19T08:20:56;22.20;99.90
49777;DHT22;35673;51.482;7.436;2022-08-19T08:23:22;22.40;99.90
49777;DHT22;35673;51.482;7.436;2022-08-19T08:25:54;22.50;99.90
49777;DHT22;35673;51.482;7.436;2022-08-19T08:28:21;22.60;99.60
49777;DHT22;35673;51.482;7.436;2022-08-19T08:30:47;22.70;99.00
49777;DHT22;35673;51.482;7.436;2022-08-19T08:33:21;23.00;97.80
49777;DHT22;35673;51.482;7.436;2022-08-19T08:35:48;23.30;96.70
49777;DHT22;35673;51.482;7.436;2022-08-19T08:38:14;23.50;95.20
49777;DHT22;35673;51.482;7.436;2022-08-19T08:40:53;23.80;92.90
49777;DHT22;35673;51.482;7.436;2022-08-19T08:46:15;24.00;90.50
49777;DHT22;35673;51.482;7.436;2022-08-19T08:51:48;24.10;89.40
49777;DHT22;35673;51.482;7.436;2022-08-19T08:54:19;24.20;88.20
49777;DHT22;35673;51.482;7.436;2022-08-19T08:56:46;24.20;88.40
49777;DHT22;35673;51.482;7.436;2022-08-19T08:59:23;24.20;88.20
49777;DHT22;35673;51.482;7.436;2022-08-19T09:01:49;24.40;86.50
49777;DHT22;35673;51.482;7.436;2022-08-19T09:04:15;24.50;85.80
49777;DHT22;35673;51.482;7.436;2022-08-19T09:09:34;24.70;84.30
49777;DHT22;35673;51.482;7.436;2022-08-19T09:15:14;24.90;82.70
49777;DHT22;35673;51.482;7.436;2022-08-19T09:17:41;24.70;83.30
49777;DHT22;35673;51.482;7.436;2022-08-19T09:22:40;25.10;81.50
49777;DHT22;35673;51.482;7.436;2022-08-19T09:25:08;25.10;79.00
49777;DHT22;35673;51.482;7.436;2022-08-19T09:27:35;25.00;78.40
49777;DHT22;35673;51.482;7.436;2022-08-19T09:30:03;25.20;75.60
49777;DHT22;35673;51.482;7.436;2022-08-19T09:32:30;25.40;74.60
49777;DHT22;35673;51.482;7.436;2022-08-19T09:34:55;25.20;73.80
49777;DHT22;35673;51.482;7.436;2022-08-19T09:37:24;25.30;73.80
49777;DHT22;35673;51.482;7.436;2022-08-19T09:39:50;25.40;73.50
49777;DHT22;35673;51.482;7.436;2022-08-19T09:42:15;25.50;73.70
49777;DHT22;35673;51.482;7.436;2022-08-19T09:44:42;25.70;73.60
49777;DHT22;35673;51.482;7.436;2022-08-19T09:47:09;25.80;72.60
49777;DHT22;35673;51.482;7.436;2022-08-19T09:49:36;25.80;72.00
49777;DHT22;35673;51.482;7.436;2022-08-19T09:52:03;25.80;71.20
49777;DHT22;35673;51.482;7.436;2022-08-19T09:54:29;25.90;71.10
49777;DHT22;35673;51.482;7.436;2022-08-19T09:56:55;25.90;70.70
49777;DHT22;35673;51.482;7.436;2022-08-19T09:59:22;25.90;70.80
49777;DHT22;35673;51.482;7.436;2022-08-19T10:01:48;26.00;70.50
49777;DHT22;35673;51.482;7.436;2022-08-19T10:04:14;26.00;70.70
49777;DHT22;35673;51.482;7.436;2022-08-19T10:06:40;26.00;70.70
49777;DHT22;35673;51.482;7.436;2022-08-19T10:09:10;25.80;70.90
49777;DHT22;35673;51.482;7.436;2022-08-19T10:11:38;25.90;70.90
49777;DHT22;35673;51.482;7.436;2022-08-19T10:14:04;25.90;71.30
49777;DHT22;35673;51.482;7.436;2022-08-19T10:16:31;26.00;70.90
49777;DHT22;35673;51.482;7.436;2022-08-19T10:18:58;25.90;70.80
49777;DHT22;35673;51.482;7.436;2022-08-19T10:21:27;25.70;70.50
49777;DHT22;35673;51.482;7.436;2022-08-19T10:23:55;25.70;70.70
49777;DHT22;35673;51.482;7.436;2022-08-19T10:26:26;25.70;70.70
49777;DHT22;35673;51.482;7.436;2022-08-19T10:28:52;25.70;70.40
49777;DHT22;35673;51.482;7.436;2022-08-19T10:31:29;25.90;70.10
49777;DHT22;35673;51.482;7.436;2022-08-19T10:33:56;26.00;69.30
49777;DHT22;35673;51.482;7.436;2022-08-19T10:36:28;26.10;68.50
49777;DHT22;35673;51.482;7.436;2022-08-19T10:38:56;26.00;68.00
49777;DHT22;35673;51.482;7.436;2022-08-19T10:41:26;26.00;68.30
49777;DHT22;35673;51.482;7.436;2022-08-19T10:43:55;25.70;69.00
49777;DHT22;35673;51.482;7.436;2022-08-19T10:46:23;25.60;69.60
49777;DHT22;35673;51.482;7.436;2022-08-19T10:48:49;25.50;70.20
49777;DHT22;35673;51.482;7.436;2022-08-19T10:51:16;25.60;69.70
49777;DHT22;35673;51.482;7.436;2022-08-19T10:54:00;25.50;70.40
49777;DHT22;35673;51.482;7.436;2022-08-19T10:56:27;25.50;69.40
49777;DHT22;35673;51.482;7.436;2022-08-19T10:59:11;25.50;69.40
49777;DHT22;35673;51.482;7.436;2022-08-19T11:01:41;25.60;68.70
49777;DHT22;35673;51.482;7.436;2022-08-19T11:04:07;25.60;68.70
49777;DHT22;35673;51.482;7.436;2022-08-19T11:06:36;25.90;67.60
49777;DHT22;35673;51.482;7.436;2022-08-19T11:09:03;26.00;68.30
49777;DHT22;35673;51.482;7.436;2022-08-19T11:11:30;26.20;66.40
49777;DHT22;35673;51.482;7.436;2022-08-19T11:13:55;26.30;65.00
49777;DHT22;35673;51.482;7.436;2022-08-19T11:16:26;26.30;64.90
49777;DHT22;35673;51.482;7.436;2022-08-19T11:18:54;26.50;64.90
49777;DHT22;35673;51.482;7.436;2022-08-19T11:21:27;26.60;64.40
49777;DHT22;35673;51.482;7.436;2022-08-19T11:23:56;26.50;64.40
49777;DHT22;35673;51.482;7.436;2022-08-19T11:26:22;26.40;64.60
49777;DHT22;35673;51.482;7.436;2022-08-19T11:28:49;26.50;64.40
49777;DHT22;35673;51.482;7.436;2022-08-19T11:31:21;26.60;64.50
49777;DHT22;35673;51.482;7.436;2022-08-19T11:33:47;26.70;64.50
49777;DHT22;35673;51.482;7.436;2022-08-19T11:36:17;26.90;63.60
49777;DHT22;35673;51.482;7.436;2022-08-19T11:38:45;26.70;64.10
49777;DHT22;35673;51.482;7.436;2022-08-19T11:41:12;26.70;63.70
49777;DHT22;35673;51.482;7.436;2022-08-19T11:43:37;26.70;63.40
49777;DHT22;35673;51.482;7.436;2022-08-19T11:46:10;26.80;63.00
49777;DHT22;35673;51.482;7.436;2022-08-19T11:48:37;26.90;62.10
49777;DHT22;35673;51.482;7.436;2022-08-19T11:51:07;26.90;62.10
49777;DHT22;35673;51.482;7.436;2022-08-19T11:53:34;26.80;62.10
49777;DHT22;35673;51.482;7.436;2022-08-19T11:56:00;26.70;62.00
49777;DHT22;35673;51.482;7.436;2022-08-19T11:58:26;26.80;61.20
49777;DHT22;35673;51.482;7.436;2022-08-19T12:00:52;26.70;61.60
49777;DHT22;35673;51.482;7.436;2022-08-19T12:03:17;26.80;62.10
49777;DHT22;35673;51.482;7.436;2022-08-19T12:05:45;27.00;61.30
49777;DHT22;35673;51.482;7.436;2022-08-19T12:08:10;26.90;62.10
49777;DHT22;35673;51.482;7.436;2022-08-19T12:10:39;27.00;61.40
49777;DHT22;35673;51.482;7.436;2022-08-19T12:13:05;27.00;61.10
49777;DHT22;35673;51.482;7.436;2022-08-19T12:15:36;27.20;61.90
49777;DHT22;35673;51.482;7.436;2022-08-19T12:18:01;27.20;61.10
49777;DHT22;35673;51.482;7.436;2022-08-19T12:20:27;26.90;61.40
49777;DHT22;35673;51.482;7.436;2022-08-19T12:22:52;26.80;61.80
49777;DHT22;35673;51.482;7.436;2022-08-19T12:25:18;26.90;61.00
49777;DHT22;35673;51.482;7.436;2022-08-19T12:27:44;27.10;60.70
49777;DHT22;35673;51.482;7.436;2022-08-19T12:30:12;27.10;60.40
49777;DHT22;35673;51.482;7.436;2022-08-19T12:32:38;27.00;60.50
49777;DHT22;35673;51.482;7.436;2022-08-19T12:35:05;26.90;60.30
49777;DHT22;35673;51.482;7.436;2022-08-19T12:37:31;27.30;59.70
49777;DHT22;35673;51.482;7.436;2022-08-19T12:39:57;27.70;58.90
49777;DHT22;35673;51.482;7.436;2022-08-19T12:42:23;28.10;57.80
49777;DHT22;35673;51.482;7.436;2022-08-19T12:44:49;28.30;57.20
49777;DHT22;35673;51.482;7.436;2022-08-19T12:47:16;28.50;56.80
49777;DHT22;35673;51.482;7.436;2022-08-19T12:49:42;28.40;57.00
49777;DHT22;35673;51.482;7.436;2022-08-19T12:52:10;28.50;56.70
49777;DHT22;35673;51.482;7.436;2022-08-19T12:54:37;28.60;55.80
49777;DHT22;35673;51.482;7.436;2022-08-19T12:57:07;28.40;56.30
49777;DHT22;35673;51.482;7.436;2022-08-19T12:59:37;28.30;56.70
49777;DHT22;35673;51.482;7.436;2022-08-19T13:02:07;28.90;56.50
49777;DHT22;35673;51.482;7.436;2022-08-19T13:04:33;29.20;56.40
49777;DHT22;35673;51.482;7.436;2022-08-19T13:07:06;29.40;56.20
49777;DHT22;35673;51.482;7.436;2022-08-19T13:09:32;29.20;55.60
49777;DHT22;35673;51.482;7.436;2022-08-19T13:11:58;29.10;56.00
49777;DHT22;35673;51.482;7.436;2022-08-19T13:14:27;29.40;56.00
49777;DHT22;35673;51.482;7.436;2022-08-19T13:16:55;29.40;55.60
49777;DHT22;35673;51.482;7.436;2022-08-19T13:19:22;29.60;55.60
49777;DHT22;35673;51.482;7.436;2022-08-19T13:21:50;30.50;54.90
49777;DHT22;35673;51.482;7.436;2022-08-19T13:24:16;30.90;53.50
49777;DHT22;35673;51.482;7.436;2022-08-19T13:26:42;31.10;52.50
49777;DHT22;35673;51.482;7.436;2022-08-19T13:29:08;31.90;51.70
49777;DHT22;35673;51.482;7.436;2022-08-19T13:31:52;33.70;50.50
49777;DHT22;35673;51.482;7.436;2022-08-19T13:34:36;34.60;49.00
49777;DHT22;35673;51.482;7.436;2022-08-19T13:37:03;35.70;47.20
49777;DHT22;35673;51.482;7.436;2022-08-19T13:39:31;36.70;45.40
49777;DHT22;35673;51.482;7.436;2022-08-19T13:41:58;37.60;44.50
49777;DHT22;35673;51.482;7.436;2022-08-19T13:44:23;38.20;44.40
49777;DHT22;35673;51.482;7.436;2022-08-19T13:46:49;38.30;43.50
49777;DHT22;35673;51.482;7.436;2022-08-19T13:49:18;38.80;43.10
49777;DHT22;35673;51.482;7.436;2022-08-19T13:51:44;39.40;42.50
49777;DHT22;35673;51.482;7.436;2022-08-19T13:54:11;38.80;41.70
49777;DHT22;35673;51.482;7.436;2022-08-19T13:56:42;36.50;42.70
49777;DHT22;35673;51.482;7.436;2022-08-19T13:59:09;34.50;44.70
49777;DHT22;35673;51.482;7.436;2022-08-19T14:01:34;36.00;45.00
49777;DHT22;35673;51.482;7.436;2022-08-19T14:04:01;37.10;43.50
49777;DHT22;35673;51.482;7.436;2022-08-19T14:06:26;37.80;42.50
49777;DHT22;35673;51.482;7.436;2022-08-19T14:08:52;39.00;41.60
49777;DHT22;35673;51.482;7.436;2022-08-19T14:11:18;39.00;40.90
49777;DHT22;35673;51.482;7.436;2022-08-19T14:13:43;37.90;41.80
49777;DHT22;35673;51.482;7.436;2022-08-19T14:16:12;39.40;41.30
49777;DHT22;35673;51.482;7.436;2022-08-19T14:18:38;37.50;41.50
49777;DHT22;35673;51.482;7.436;2022-08-19T14:21:04;35.60;42.80
49777;DHT22;35673;51.482;7.436;2022-08-19T14:23:31;34.20;44.30
49777;DHT22;35673;51.482;7.436;2022-08-19T14:26:08;34.10;45.40
49777;DHT22;35673;51.482;7.436;2022-08-19T14:28:34;36.10;44.00
49777;DHT22;35673;51.482;7.436;2022-08-19T14:31:00;37.00;43.30
49777;DHT22;35673;51.482;7.436;2022-08-19T14:33:25;36.70;42.30
49777;DHT22;35673;51.482;7.436;2022-08-19T14:35:51;36.90;42.40
49777;DHT22;35673;51.482;7.436;2022-08-19T14:38:17;37.20;42.40
49777;DHT22;35673;51.482;7.436;2022-08-19T14:40:44;38.10;42.10
49777;DHT22;35673;51.482;7.436;2022-08-19T14:43:10;37.90;40.60
49777;DHT22;35673;51.482;7.436;2022-08-19T14:45:37;38.30;41.20
49777;DHT22;35673;51.482;7.436;2022-08-19T14:48:07;39.00;40.30
49777;DHT22;35673;51.482;7.436;2022-08-19T14:50:35;39.50;40.40
49777;DHT22;35673;51.482;7.436;2022-08-19T14:53:05;39.30;40.60
49777;DHT22;35673;51.482;7.436;2022-08-19T14:55:32;37.50;41.00
49777;DHT22;35673;51.482;7.436;2022-08-19T14:57:58;36.90;40.80
49777;DHT22;35673;51.482;7.436;2022-08-19T15:00:24;38.10;40.70
49777;DHT22;35673;51.482;7.436;2022-08-19T15:02:50;39.60;39.80
49777;DHT22;35673;51.482;7.436;2022-08-19T15:05:16;40.80;39.00
49777;DHT22;35673;51.482;7.436;2022-08-19T15:07:42;41.20;38.30
49777;DHT22;35673;51.482;7.436;2022-08-19T15:10:10;41.80;37.90
49777;DHT22;35673;51.482;7.436;2022-08-19T15:12:36;42.20;37.50
49777;DHT22;35673;51.482;7.436;2022-08-19T15:15:03;42.90;37.20
49777;DHT22;35673;51.482;7.436;2022-08-19T15:17:28;43.20;36.20
49777;DHT22;35673;51.482;7.436;2022-08-19T15:19:55;43.20;36.40
49777;DHT22;35673;51.482;7.436;2022-08-19T15:22:21;43.20;35.80
49777;DHT22;35673;51.482;7.436;2022-08-19T15:24:47;42.60;36.20
49777;DHT22;35673;51.482;7.436;2022-08-19T15:27:13;41.60;36.40
49777;DHT22;35673;51.482;7.436;2022-08-19T15:29:39;42.30;36.70
49777;DHT22;35673;51.482;7.436;2022-08-19T15:32:06;43.10;36.10
49777;DHT22;35673;51.482;7.436;2022-08-19T15:34:33;43.50;35.40
49777;DHT22;35673;51.482;7.436;2022-08-19T15:37:00;42.70;35.70
49777;DHT22;35673;51.482;7.436;2022-08-19T15:39:26;42.50;35.80
49777;DHT22;35673;51.482;7.436;2022-08-19T15:41:52;41.80;35.80
49777;DHT22;35673;51.482;7.436;2022-08-19T15:44:19;40.10;36.50
49777;DHT22;35673;51.482;7.436;2022-08-19T15:46:47;38.00;38.10
49777;DHT22;35673;51.482;7.436;2022-08-19T15:49:15;36.30;39.60
49777;DHT22;35673;51.482;7.436;2022-08-19T15:51:44;35.10;41.00